sensor_id;sensor_type;location;lat;lon;timestamp;P1;durP1;ratioP1;P2;durP2;ratioP2
21927;SDS011;11128;51.096;17.190;2023-03-14T00:01:37;27.13;;;10.90;;
21927;SDS011;11128;51.096;17.190;2023-03-14T00:06:38;32.17;;;13.32;;
21927;SDS011;11128;51.096;17.190;2023-03-14T00:11:39;27.90;;;11.60;;
21927;SDS011;11128;51.096;17.190;2023-03-14T00:16:41;26.90;;;11.73;;
21927;SDS011;11128;51.096;17.190;2023-03-14T00:21:42;31.38;;;12.75;;
21927;SDS011;11128;51.096;17.190;2023-03-14T00:26:43;39.55;;;16.73;;
21927;SDS011;11128;51.096;17.190;2023-03-14T00:31:44;41.08;;;16.60;;
21927;SDS011;11128;51.096;17.190;2023-03-14T00:36:46;40.20;;;16.85;;
21927;SDS011;11128;51.096;17.190;2023-03-14T00:41:47;40.85;;;18.80;;
21927;SDS011;11128;51.096;17.190;2023-03-14T00:46:48;48.10;;;21.73;;
21927;SDS011;11128;51.096;17.190;2023-03-14T00:51:49;43.45;;;21.00;;
21927;SDS011;11128;51.096;17.190;2023-03-14T00:56:52;42.90;;;21.25;;
21927;SDS011;11128;51.096;17.190;2023-03-14T01:01:53;33.22;;;18.13;;
21927;SDS011;11128;51.096;17.190;2023-03-14T01:06:54;21.52;;;11.00;;
21927;SDS011;11128;51.096;17.190;2023-03-14T01:11:56;16.30;;;7.43;;
21927;SDS011;11128;51.096;17.190;2023-03-14T01:16:57;18.48;;;8.13;;
21927;SDS011;11128;51.096;17.190;2023-03-14T01:22:01;16.92;;;7.82;;
21927;SDS011;11128;51.096;17.190;2023-03-14T01:27:02;25.55;;;9.23;;
21927;SDS011;11128;51.096;17.190;2023-03-14T01:32:04;22.80;;;9.63;;
21927;SDS011;11128;51.096;17.190;2023-03-14T01:37:05;25.05;;;10.68;;
21927;SDS011;11128;51.096;17.190;2023-03-14T01:42:08;26.52;;;12.07;;
21927;SDS011;11128;51.096;17.190;2023-03-14T01:47:09;18.95;;;9.35;;
21927;SDS011;11128;51.096;17.190;2023-03-14T01:52:12;22.42;;;10.10;;
21927;SDS011;11128;51.096;17.190;2023-03-14T01:57:19;12.63;;;6.47;;
21927;SDS011;11128;51.096;17.190;2023-03-14T02:02:49;14.30;;;7.45;;
21927;SDS011;11128;51.096;17.190;2023-03-14T02:07:53;14.82;;;7.07;;
21927;SDS011;11128;51.096;17.190;2023-03-14T02:12:57;17.92;;;6.97;;
21927;SDS011;11128;51.096;17.190;2023-03-14T02:18:02;13.18;;;6.22;;
21927;SDS011;11128;51.096;17.190;2023-03-14T02:23:04;9.90;;;5.63;;
21927;SDS011;11128;51.096;17.190;2023-03-14T02:28:06;12.98;;;5.68;;
21927;SDS011;11128;51.096;17.190;2023-03-14T02:33:08;8.70;;;4.18;;
21927;SDS011;11128;51.096;17.190;2023-03-14T02:38:17;9.60;;;3.92;;
21927;SDS011;11128;51.096;17.190;2023-03-14T02:43:38;8.35;;;3.88;;
21927;SDS011;11128;51.096;17.190;2023-03-14T02:48:45;6.22;;;3.25;;
21927;SDS011;11128;51.096;17.190;2023-03-14T02:53:53;5.65;;;3.33;;
21927;SDS011;11128;51.096;17.190;2023-03-14T02:58:54;7.00;;;3.50;;
21927;SDS011;11128;51.096;17.190;2023-03-14T03:03:55;5.75;;;3.20;;
21927;SDS011;11128;51.096;17.190;2023-03-14T03:08:57;5.28;;;2.47;;
21927;SDS011;11128;51.096;17.190;2023-03-14T03:13:58;4.63;;;2.67;;
21927;SDS011;11128;51.096;17.190;2023-03-14T03:18:59;6.63;;;2.83;;
21927;SDS011;11128;51.096;17.190;2023-03-14T03:24:00;4.57;;;2.45;;
21927;SDS011;11128;51.096;17.190;2023-03-14T03:29:02;4.40;;;2.10;;
21927;SDS011;11128;51.096;17.190;2023-03-14T03:34:04;3.03;;;2.33;;
21927;SDS011;11128;51.096;17.190;2023-03-14T03:39:05;3.53;;;2.15;;
21927;SDS011;11128;51.096;17.190;2023-03-14T03:44:06;4.70;;;2.05;;
21927;SDS011;11128;51.096;17.190;2023-03-14T03:49:08;4.18;;;2.55;;
21927;SDS011;11128;51.096;17.190;2023-03-14T03:54:09;4.53;;;2.22;;
21927;SDS011;11128;51.096;17.190;2023-03-14T03:59:10;5.38;;;2.50;;
21927;SDS011;11128;51.096;17.190;2023-03-14T04:04:12;3.83;;;2.42;;
21927;SDS011;11128;51.096;17.190;2023-03-14T04:09:14;4.22;;;2.20;;
21927;SDS011;11128;51.096;17.190;2023-03-14T04:14:16;4.28;;;2.50;;
21927;SDS011;11128;51.096;17.190;2023-03-14T04:19:17;4.88;;;2.50;;
21927;SDS011;11128;51.096;17.190;2023-03-14T04:24:18;4.53;;;2.35;;
21927;SDS011;11128;51.096;17.190;2023-03-14T04:29:20;6.90;;;2.50;;
21927;SDS011;11128;51.096;17.190;2023-03-14T04:34:21;3.45;;;2.58;;
21927;SDS011;11128;51.096;17.190;2023-03-14T04:39:22;4.55;;;2.83;;
21927;SDS011;11128;51.096;17.190;2023-03-14T04:44:23;7.05;;;2.50;;
21927;SDS011;11128;51.096;17.190;2023-03-14T04:49:25;3.75;;;2.15;;
21927;SDS011;11128;51.096;17.190;2023-03-14T04:54:26;3.45;;;2.08;;
21927;SDS011;11128;51.096;17.190;2023-03-14T04:59:27;4.13;;;2.25;;
21927;SDS011;11128;51.096;17.190;2023-03-14T05:04:28;5.10;;;2.58;;
21927;SDS011;11128;51.096;17.190;2023-03-14T05:09:33;5.70;;;2.55;;
21927;SDS011;11128;51.096;17.190;2023-03-14T05:14:34;9.68;;;2.72;;
21927;SDS011;11128;51.096;17.190;2023-03-14T05:19:36;6.65;;;2.67;;
21927;SDS011;11128;51.096;17.190;2023-03-14T05:24:37;7.07;;;2.33;;
21927;SDS011;11128;51.096;17.190;2023-03-14T05:29:38;5.30;;;2.83;;
21927;SDS011;11128;51.096;17.190;2023-03-14T05:34:40;6.57;;;2.42;;
21927;SDS011;11128;51.096;17.190;2023-03-14T05:39:41;4.97;;;2.85;;
21927;SDS011;11128;51.096;17.190;2023-03-14T05:44:42;5.18;;;2.63;;
21927;SDS011;11128;51.096;17.190;2023-03-14T05:49:44;4.18;;;2.58;;
21927;SDS011;11128;51.096;17.190;2023-03-14T05:54:45;6.38;;;3.08;;
21927;SDS011;11128;51.096;17.190;2023-03-14T05:59:47;4.22;;;2.95;;
21927;SDS011;11128;51.096;17.190;2023-03-14T06:04:48;9.73;;;4.95;;
21927;SDS011;11128;51.096;17.190;2023-03-14T06:09:49;8.13;;;5.88;;
21927;SDS011;11128;51.096;17.190;2023-03-14T06:14:50;5.18;;;2.55;;
21927;SDS011;11128;51.096;17.190;2023-03-14T06:19:52;5.43;;;2.55;;
21927;SDS011;11128;51.096;17.190;2023-03-14T06:24:53;5.97;;;2.97;;
21927;SDS011;11128;51.096;17.190;2023-03-14T06:29:55;9.63;;;3.00;;
21927;SDS011;11128;51.096;17.190;2023-03-14T06:34:56;7.95;;;3.08;;
21927;SDS011;11128;51.096;17.190;2023-03-14T06:40:01;7.65;;;2.92;;
21927;SDS011;11128;51.096;17.190;2023-03-14T06:45:03;5.82;;;3.13;;
21927;SDS011;11128;51.096;17.190;2023-03-14T06:50:05;4.50;;;2.83;;
21927;SDS011;11128;51.096;17.190;2023-03-14T06:55:08;6.57;;;3.42;;
21927;SDS011;11128;51.096;17.190;2023-03-14T07:00:11;11.45;;;3.08;;
21927;SDS011;11128;51.096;17.190;2023-03-14T07:05:15;7.03;;;3.33;;
21927;SDS011;11128;51.096;17.190;2023-03-14T07:10:16;7.55;;;3.17;;
21927;SDS011;11128;51.096;17.190;2023-03-14T07:15:18;10.27;;;3.53;;
21927;SDS011;11128;51.096;17.190;2023-03-14T07:20:22;7.90;;;2.60;;
21927;SDS011;11128;51.096;17.190;2023-03-14T07:25:24;8.32;;;3.20;;
21927;SDS011;11128;51.096;17.190;2023-03-14T07:30:26;6.78;;;2.95;;
21927;SDS011;11128;51.096;17.190;2023-03-14T07:35:27;6.05;;;2.78;;
21927;SDS011;11128;51.096;17.190;2023-03-14T07:40:28;12.43;;;3.33;;
21927;SDS011;11128;51.096;17.190;2023-03-14T07:45:30;7.28;;;3.47;;
21927;SDS011;11128;51.096;17.190;2023-03-14T07:50:31;6.60;;;3.17;;
21927;SDS011;11128;51.096;17.190;2023-03-14T07:55:33;5.40;;;3.05;;
21927;SDS011;11128;51.096;17.190;2023-03-14T08:00:34;6.00;;;3.83;;
21927;SDS011;11128;51.096;17.190;2023-03-14T08:05:36;5.70;;;3.45;;
21927;SDS011;11128;51.096;17.190;2023-03-14T08:10:38;7.90;;;4.20;;
21927;SDS011;11128;51.096;17.190;2023-03-14T08:15:39;7.47;;;3.20;;
21927;SDS011;11128;51.096;17.190;2023-03-14T08:20:41;10.52;;;4.28;;
21927;SDS011;11128;51.096;17.190;2023-03-14T08:25:43;8.00;;;3.95;;
21927;SDS011;11128;51.096;17.190;2023-03-14T08:30:44;9.38;;;4.45;;
21927;SDS011;11128;51.096;17.190;2023-03-14T08:35:46;9.82;;;4.40;;
21927;SDS011;11128;51.096;17.190;2023-03-14T08:40:47;14.18;;;4.57;;
21927;SDS011;11128;51.096;17.190;2023-03-14T08:45:50;8.82;;;3.90;;
21927;SDS011;11128;51.096;17.190;2023-03-14T08:50:51;11.82;;;4.53;;
21927;SDS011;11128;51.096;17.190;2023-03-14T08:55:53;9.50;;;4.20;;
21927;SDS011;11128;51.096;17.190;2023-03-14T09:00:55;9.80;;;4.90;;
21927;SDS011;11128;51.096;17.190;2023-03-14T09:06:01;9.60;;;4.70;;
21927;SDS011;11128;51.096;17.190;2023-03-14T09:11:07;8.82;;;4.47;;
21927;SDS011;11128;51.096;17.190;2023-03-14T09:16:09;8.27;;;3.78;;
21927;SDS011;11128;51.096;17.190;2023-03-14T09:21:11;7.88;;;4.15;;
21927;SDS011;11128;51.096;17.190;2023-03-14T09:26:13;14.05;;;4.82;;
21927;SDS011;11128;51.096;17.190;2023-03-14T09:31:14;10.80;;;5.22;;
21927;SDS011;11128;51.096;17.190;2023-03-14T09:36:15;10.82;;;4.90;;
21927;SDS011;11128;51.096;17.190;2023-03-14T09:41:24;11.60;;;5.43;;
21927;SDS011;11128;51.096;17.190;2023-03-14T09:46:31;12.18;;;3.80;;
21927;SDS011;11128;51.096;17.190;2023-03-14T09:51:36;7.63;;;4.28;;
21927;SDS011;11128;51.096;17.190;2023-03-14T09:56:37;11.13;;;4.05;;
21927;SDS011;11128;51.096;17.190;2023-03-14T10:01:39;10.15;;;4.65;;
21927;SDS011;11128;51.096;17.190;2023-03-14T10:06:41;10.30;;;4.78;;
21927;SDS011;11128;51.096;17.190;2023-03-14T10:11:42;10.20;;;5.22;;
21927;SDS011;11128;51.096;17.190;2023-03-14T10:16:45;8.63;;;4.65;;
21927;SDS011;11128;51.096;17.190;2023-03-14T10:21:51;7.05;;;3.78;;
21927;SDS011;11128;51.096;17.190;2023-03-14T10:26:54;8.18;;;3.60;;
21927;SDS011;11128;51.096;17.190;2023-03-14T10:37:20;7.95;;;4.28;;
21927;SDS011;11128;51.096;17.190;2023-03-14T10:42:29;8.27;;;4.47;;
21927;SDS011;11128;51.096;17.190;2023-03-14T10:47:47;9.07;;;4.90;;
21927;SDS011;11128;51.096;17.190;2023-03-14T10:52:51;8.45;;;4.72;;
21927;SDS011;11128;51.096;17.190;2023-03-14T10:57:53;8.23;;;4.28;;
21927;SDS011;11128;51.096;17.190;2023-03-14T11:08:07;10.75;;;5.15;;
21927;SDS011;11128;51.096;17.190;2023-03-14T11:13:26;7.93;;;4.28;;
21927;SDS011;11128;51.096;17.190;2023-03-14T11:24:10;7.78;;;3.95;;
21927;SDS011;11128;51.096;17.190;2023-03-14T11:29:23;8.77;;;3.97;;
21927;SDS011;11128;51.096;17.190;2023-03-14T11:34:35;10.32;;;4.22;;
21927;SDS011;11128;51.096;17.190;2023-03-14T11:39:45;9.43;;;4.45;;
21927;SDS011;11128;51.096;17.190;2023-03-14T11:44:56;9.80;;;4.60;;
21927;SDS011;11128;51.096;17.190;2023-03-14T11:50:15;10.60;;;4.20;;
21927;SDS011;11128;51.096;17.190;2023-03-14T11:55:24;6.80;;;3.42;;
21927;SDS011;11128;51.096;17.190;2023-03-14T12:00:32;6.38;;;3.40;;
21927;SDS011;11128;51.096;17.190;2023-03-14T12:11:08;6.90;;;3.00;;
21927;SDS011;11128;51.096;17.190;2023-03-14T12:21:43;5.20;;;2.70;;
21927;SDS011;11128;51.096;17.190;2023-03-14T12:26:53;8.40;;;3.63;;
21927;SDS011;11128;51.096;17.190;2023-03-14T12:37:23;11.07;;;4.63;;
21927;SDS011;11128;51.096;17.190;2023-03-14T12:53:04;6.60;;;3.83;;
21927;SDS011;11128;51.096;17.190;2023-03-14T12:58:11;6.20;;;3.92;;
21927;SDS011;11128;51.096;17.190;2023-03-14T13:03:43;5.63;;;3.17;;
21927;SDS011;11128;51.096;17.190;2023-03-14T13:08:47;6.40;;;3.25;;
21927;SDS011;11128;51.096;17.190;2023-03-14T13:13:56;4.78;;;3.22;;
21927;SDS011;11128;51.096;17.190;2023-03-14T13:19:00;5.57;;;3.13;;
21927;SDS011;11128;51.096;17.190;2023-03-14T13:24:22;6.78;;;3.30;;
21927;SDS011;11128;51.096;17.190;2023-03-14T13:29:28;4.85;;;3.33;;
21927;SDS011;11128;51.096;17.190;2023-03-14T13:34:32;9.05;;;3.67;;
21927;SDS011;11128;51.096;17.190;2023-03-14T13:39:35;8.60;;;3.33;;
21927;SDS011;11128;51.096;17.190;2023-03-14T13:44:40;4.53;;;3.00;;
21927;SDS011;11128;51.096;17.190;2023-03-14T13:49:42;6.38;;;3.40;;
21927;SDS011;11128;51.096;17.190;2023-03-14T13:54:44;8.63;;;3.72;;
21927;SDS011;11128;51.096;17.190;2023-03-14T13:59:57;6.00;;;3.70;;
21927;SDS011;11128;51.096;17.190;2023-03-14T14:05:10;7.32;;;3.70;;
21927;SDS011;11128;51.096;17.190;2023-03-14T14:10:13;6.82;;;3.67;;
21927;SDS011;11128;51.096;17.190;2023-03-14T14:15:19;8.02;;;3.38;;
21927;SDS011;11128;51.096;17.190;2023-03-14T14:20:28;9.07;;;3.90;;
21927;SDS011;11128;51.096;17.190;2023-03-14T14:25:34;6.82;;;4.20;;
21927;SDS011;11128;51.096;17.190;2023-03-14T14:30:36;5.22;;;3.38;;
21927;SDS011;11128;51.096;17.190;2023-03-14T14:35:38;5.55;;;3.42;;
21927;SDS011;11128;51.096;17.190;2023-03-14T14:40:43;5.50;;;3.55;;
21927;SDS011;11128;51.096;17.190;2023-03-14T14:45:47;9.88;;;5.32;;
21927;SDS011;11128;51.096;17.190;2023-03-14T14:55:56;11.63;;;5.38;;
21927;SDS011;11128;51.096;17.190;2023-03-14T15:06:24;7.63;;;4.30;;
21927;SDS011;11128;51.096;17.190;2023-03-14T15:11:29;10.57;;;4.93;;
21927;SDS011;11128;51.096;17.190;2023-03-14T15:16:30;10.20;;;4.78;;
21927;SDS011;11128;51.096;17.190;2023-03-14T15:21:32;8.98;;;4.00;;
21927;SDS011;11128;51.096;17.190;2023-03-14T15:26:34;8.25;;;4.10;;
21927;SDS011;11128;51.096;17.190;2023-03-14T15:31:35;6.20;;;3.72;;
21927;SDS011;11128;51.096;17.190;2023-03-14T15:36:37;8.70;;;3.90;;
21927;SDS011;11128;51.096;17.190;2023-03-14T15:41:39;7.45;;;4.38;;
21927;SDS011;11128;51.096;17.190;2023-03-14T15:46:41;8.55;;;4.30;;
21927;SDS011;11128;51.096;17.190;2023-03-14T15:51:43;7.88;;;4.38;;
21927;SDS011;11128;51.096;17.190;2023-03-14T15:56:44;7.53;;;3.80;;
21927;SDS011;11128;51.096;17.190;2023-03-14T16:01:46;9.02;;;4.95;;
21927;SDS011;11128;51.096;17.190;2023-03-14T16:06:48;9.07;;;4.47;;
21927;SDS011;11128;51.096;17.190;2023-03-14T16:11:50;8.43;;;5.03;;
21927;SDS011;11128;51.096;17.190;2023-03-14T16:16:51;11.02;;;4.68;;
21927;SDS011;11128;51.096;17.190;2023-03-14T16:21:53;9.00;;;4.90;;
21927;SDS011;11128;51.096;17.190;2023-03-14T16:26:55;9.70;;;4.65;;
21927;SDS011;11128;51.096;17.190;2023-03-14T16:31:56;8.45;;;4.50;;
21927;SDS011;11128;51.096;17.190;2023-03-14T16:36:57;8.45;;;4.43;;
21927;SDS011;11128;51.096;17.190;2023-03-14T16:41:59;9.00;;;4.85;;
21927;SDS011;11128;51.096;17.190;2023-03-14T16:47:00;8.50;;;4.90;;
21927;SDS011;11128;51.096;17.190;2023-03-14T16:52:02;8.55;;;4.88;;
21927;SDS011;11128;51.096;17.190;2023-03-14T16:57:04;12.98;;;4.88;;
21927;SDS011;11128;51.096;17.190;2023-03-14T17:02:05;9.80;;;5.78;;
21927;SDS011;11128;51.096;17.190;2023-03-14T17:07:07;10.32;;;5.30;;
21927;SDS011;11128;51.096;17.190;2023-03-14T17:12:08;10.98;;;5.28;;
21927;SDS011;11128;51.096;17.190;2023-03-14T17:17:10;9.77;;;5.05;;
21927;SDS011;11128;51.096;17.190;2023-03-14T17:22:11;6.75;;;4.18;;
21927;SDS011;11128;51.096;17.190;2023-03-14T17:27:12;8.02;;;3.75;;
21927;SDS011;11128;51.096;17.190;2023-03-14T17:32:20;11.85;;;4.22;;
21927;SDS011;11128;51.096;17.190;2023-03-14T17:37:21;8.68;;;3.75;;
21927;SDS011;11128;51.096;17.190;2023-03-14T17:42:23;5.93;;;3.53;;
21927;SDS011;11128;51.096;17.190;2023-03-14T17:47:24;10.73;;;4.78;;
21927;SDS011;11128;51.096;17.190;2023-03-14T17:52:26;8.35;;;4.50;;
21927;SDS011;11128;51.096;17.190;2023-03-14T17:57:27;7.03;;;3.60;;
21927;SDS011;11128;51.096;17.190;2023-03-14T18:02:29;9.43;;;4.15;;
21927;SDS011;11128;51.096;17.190;2023-03-14T18:07:33;9.32;;;4.57;;
21927;SDS011;11128;51.096;17.190;2023-03-14T18:12:36;11.35;;;4.78;;
21927;SDS011;11128;51.096;17.190;2023-03-14T18:17:40;10.75;;;4.82;;
21927;SDS011;11128;51.096;17.190;2023-03-14T18:22:41;9.50;;;4.70;;
21927;SDS011;11128;51.096;17.190;2023-03-14T18:27:42;13.70;;;5.55;;
21927;SDS011;11128;51.096;17.190;2023-03-14T18:32:44;12.30;;;5.97;;
21927;SDS011;11128;51.096;17.190;2023-03-14T18:37:45;10.38;;;5.78;;
21927;SDS011;11128;51.096;17.190;2023-03-14T18:42:47;10.48;;;5.20;;
21927;SDS011;11128;51.096;17.190;2023-03-14T18:47:48;13.50;;;5.53;;
21927;SDS011;11128;51.096;17.190;2023-03-14T18:52:50;15.02;;;5.47;;
21927;SDS011;11128;51.096;17.190;2023-03-14T18:57:51;11.50;;;4.82;;
21927;SDS011;11128;51.096;17.190;2023-03-14T19:02:53;9.23;;;5.43;;
21927;SDS011;11128;51.096;17.190;2023-03-14T19:07:54;14.23;;;5.63;;
21927;SDS011;11128;51.096;17.190;2023-03-14T19:12:57;12.52;;;5.50;;
21927;SDS011;11128;51.096;17.190;2023-03-14T19:17:59;11.23;;;5.15;;
21927;SDS011;11128;51.096;17.190;2023-03-14T19:23:00;13.23;;;5.85;;
21927;SDS011;11128;51.096;17.190;2023-03-14T19:28:02;13.00;;;5.72;;
21927;SDS011;11128;51.096;17.190;2023-03-14T19:33:04;9.10;;;5.13;;
21927;SDS011;11128;51.096;17.190;2023-03-14T19:38:06;8.85;;;4.70;;
21927;SDS011;11128;51.096;17.190;2023-03-14T19:43:09;12.50;;;4.93;;
21927;SDS011;11128;51.096;17.190;2023-03-14T19:48:11;12.18;;;5.88;;
21927;SDS011;11128;51.096;17.190;2023-03-14T19:53:12;10.98;;;5.25;;
21927;SDS011;11128;51.096;17.190;2023-03-14T19:58:14;8.35;;;4.90;;
21927;SDS011;11128;51.096;17.190;2023-03-14T20:03:16;8.10;;;4.13;;
21927;SDS011;11128;51.096;17.190;2023-03-14T20:08:20;4.03;;;1.35;;
21927;SDS011;11128;51.096;17.190;2023-03-14T20:13:23;3.03;;;0.63;;
21927;SDS011;11128;51.096;17.190;2023-03-14T20:18:24;2.75;;;1.48;;
21927;SDS011;11128;51.096;17.190;2023-03-14T20:23:26;1.73;;;1.05;;
21927;SDS011;11128;51.096;17.190;2023-03-14T20:28:27;0.60;;;0.40;;
21927;SDS011;11128;51.096;17.190;2023-03-14T20:33:28;0.50;;;0.50;;
21927;SDS011;11128;51.096;17.190;2023-03-14T20:38:34;2.13;;;0.70;;
21927;SDS011;11128;51.096;17.190;2023-03-14T20:43:36;4.80;;;2.47;;
21927;SDS011;11128;51.096;17.190;2023-03-14T20:48:37;1.05;;;0.93;;
21927;SDS011;11128;51.096;17.190;2023-03-14T20:53:39;1.00;;;0.90;;
21927;SDS011;11128;51.096;17.190;2023-03-14T20:58:41;1.05;;;0.80;;
21927;SDS011;11128;51.096;17.190;2023-03-14T21:03:45;1.02;;;0.60;;
21927;SDS011;11128;51.096;17.190;2023-03-14T21:08:46;1.13;;;1.00;;
21927;SDS011;11128;51.096;17.190;2023-03-14T21:13:48;0.50;;;0.50;;
21927;SDS011;11128;51.096;17.190;2023-03-14T21:18:49;0.80;;;0.80;;
21927;SDS011;11128;51.096;17.190;2023-03-14T21:23:50;1.67;;;0.73;;
21927;SDS011;11128;51.096;17.190;2023-03-14T21:28:53;0.70;;;0.70;;
21927;SDS011;11128;51.096;17.190;2023-03-14T21:33:55;1.25;;;1.05;;
21927;SDS011;11128;51.096;17.190;2023-03-14T21:38:56;1.08;;;0.90;;
21927;SDS011;11128;51.096;17.190;2023-03-14T21:43:57;2.05;;;0.90;;
21927;SDS011;11128;51.096;17.190;2023-03-14T21:48:58;1.85;;;0.95;;
21927;SDS011;11128;51.096;17.190;2023-03-14T21:54:00;1.10;;;1.00;;
21927;SDS011;11128;51.096;17.190;2023-03-14T21:59:01;4.22;;;2.67;;
21927;SDS011;11128;51.096;17.190;2023-03-14T22:04:03;5.53;;;3.10;;
21927;SDS011;11128;51.096;17.190;2023-03-14T22:09:04;3.63;;;2.33;;
21927;SDS011;11128;51.096;17.190;2023-03-14T22:14:05;5.00;;;1.90;;
21927;SDS011;11128;51.096;17.190;2023-03-14T22:19:07;4.57;;;2.15;;
21927;SDS011;11128;51.096;17.190;2023-03-14T22:24:08;6.20;;;1.73;;
21927;SDS011;11128;51.096;17.190;2023-03-14T22:29:09;4.65;;;2.08;;
21927;SDS011;11128;51.096;17.190;2023-03-14T22:34:11;9.45;;;2.65;;
21927;SDS011;11128;51.096;17.190;2023-03-14T22:39:13;3.33;;;1.48;;
21927;SDS011;11128;51.096;17.190;2023-03-14T22:44:14;2.88;;;1.30;;
21927;SDS011;11128;51.096;17.190;2023-03-14T22:49:15;5.25;;;2.15;;
21927;SDS011;11128;51.096;17.190;2023-03-14T22:54:17;3.58;;;1.83;;
21927;SDS011;11128;51.096;17.190;2023-03-14T22:59:18;3.95;;;2.10;;
21927;SDS011;11128;51.096;17.190;2023-03-14T23:04:19;2.40;;;1.58;;
21927;SDS011;11128;51.096;17.190;2023-03-14T23:09:21;2.70;;;1.38;;
21927;SDS011;11128;51.096;17.190;2023-03-14T23:14:22;2.17;;;1.60;;
21927;SDS011;11128;51.096;17.190;2023-03-14T23:19:23;9.20;;;2.00;;
21927;SDS011;11128;51.096;17.190;2023-03-14T23:24:27;5.70;;;2.40;;
21927;SDS011;11128;51.096;17.190;2023-03-14T23:29:28;6.30;;;2.57;;
21927;SDS011;11128;51.096;17.190;2023-03-14T23:34:30;7.40;;;2.90;;
21927;SDS011;11128;51.096;17.190;2023-03-14T23:39:31;9.35;;;3.63;;
21927;SDS011;11128;51.096;17.190;2023-03-14T23:44:32;4.38;;;2.85;;
21927;SDS011;11128;51.096;17.190;2023-03-14T23:49:33;6.03;;;2.83;;
21927;SDS011;11128;51.096;17.190;2023-03-14T23:54:35;7.20;;;2.88;;
21927;SDS011;11128;51.096;17.190;2023-03-14T23:59:36;5.57;;;2.95;;
